sensor_id;sensor_type;location;lat;lon;timestamp;P1;durP1;ratioP1;P2;durP2;ratioP2
52188;SDS011;38162;45.926;13.608;2023-09-19T00:00:45;32.72;;;8.88;;
52188;SDS011;38162;45.926;13.608;2023-09-19T00:03:14;32.00;;;10.05;;
52188;SDS011;38162;45.926;13.608;2023-09-19T00:05:40;28.75;;;9.63;;
52188;SDS011;38162;45.926;13.608;2023-09-19T00:08:09;26.13;;;9.40;;
52188;SDS011;38162;45.926;13.608;2023-09-19T00:10:35;26.48;;;9.00;;
52188;SDS011;38162;45.926;13.608;2023-09-19T00:13:01;26.60;;;8.95;;
52188;SDS011;38162;45.926;13.608;2023-09-19T00:15:39;32.90;;;9.80;;
52188;SDS011;38162;45.926;13.608;2023-09-19T00:18:06;23.52;;;9.65;;
52188;SDS011;38162;45.926;13.608;2023-09-19T00:20:32;27.13;;;9.02;;
52188;SDS011;38162;45.926;13.608;2023-09-19T00:23:00;29.20;;;9.95;;
52188;SDS011;38162;45.926;13.608;2023-09-19T00:25:34;26.13;;;9.50;;
52188;SDS011;38162;45.926;13.608;2023-09-19T00:28:00;24.45;;;9.10;;
52188;SDS011;38162;45.926;13.608;2023-09-19T00:30:26;27.92;;;9.48;;
52188;SDS011;38162;45.926;13.608;2023-09-19T00:32:52;24.83;;;8.18;;
52188;SDS011;38162;45.926;13.608;2023-09-19T00:35:19;24.73;;;8.88;;
52188;SDS011;38162;45.926;13.608;2023-09-19T00:37:52;28.50;;;9.30;;
52188;SDS011;38162;45.926;13.608;2023-09-19T00:40:18;24.63;;;8.85;;
52188;SDS011;38162;45.926;13.608;2023-09-19T00:42:46;26.13;;;9.75;;
52188;SDS011;38162;45.926;13.608;2023-09-19T00:45:14;28.20;;;9.70;;
52188;SDS011;38162;45.926;13.608;2023-09-19T00:47:43;30.05;;;8.52;;
52188;SDS011;38162;45.926;13.608;2023-09-19T00:50:11;20.08;;;8.98;;
52188;SDS011;38162;45.926;13.608;2023-09-19T00:52:39;30.42;;;8.77;;
52188;SDS011;38162;45.926;13.608;2023-09-19T00:55:10;27.23;;;9.98;;
52188;SDS011;38162;45.926;13.608;2023-09-19T00:57:39;37.45;;;9.63;;
52188;SDS011;38162;45.926;13.608;2023-09-19T01:00:08;37.55;;;9.48;;
52188;SDS011;38162;45.926;13.608;2023-09-19T01:02:43;40.28;;;10.27;;
52188;SDS011;38162;45.926;13.608;2023-09-19T01:05:09;35.53;;;10.25;;
52188;SDS011;38162;45.926;13.608;2023-09-19T01:07:37;30.95;;;9.88;;
52188;SDS011;38162;45.926;13.608;2023-09-19T01:10:08;31.70;;;9.88;;
52188;SDS011;38162;45.926;13.608;2023-09-19T01:20:34;28.25;;;8.65;;
52188;SDS011;38162;45.926;13.608;2023-09-19T01:31:22;27.40;;;9.45;;
52188;SDS011;38162;45.926;13.608;2023-09-19T01:33:56;27.98;;;8.95;;
52188;SDS011;38162;45.926;13.608;2023-09-19T01:36:30;32.97;;;9.27;;
52188;SDS011;38162;45.926;13.608;2023-09-19T01:39:12;41.20;;;9.45;;
52188;SDS011;38162;45.926;13.608;2023-09-19T01:44:34;32.17;;;10.10;;
52188;SDS011;38162;45.926;13.608;2023-09-19T01:47:08;32.38;;;9.32;;
52188;SDS011;38162;45.926;13.608;2023-09-19T01:52:36;31.50;;;10.10;;
52188;SDS011;38162;45.926;13.608;2023-09-19T01:55:10;28.27;;;8.52;;
52188;SDS011;38162;45.926;13.608;2023-09-19T01:57:51;31.40;;;8.75;;
52188;SDS011;38162;45.926;13.608;2023-09-19T02:00:26;28.38;;;9.35;;
52188;SDS011;38162;45.926;13.608;2023-09-19T02:02:54;30.35;;;9.07;;
52188;SDS011;38162;45.926;13.608;2023-09-19T02:05:23;31.92;;;9.00;;
52188;SDS011;38162;45.926;13.608;2023-09-19T02:07:51;27.52;;;8.88;;
52188;SDS011;38162;45.926;13.608;2023-09-19T02:10:18;26.10;;;9.18;;
52188;SDS011;38162;45.926;13.608;2023-09-19T02:12:44;22.90;;;8.57;;
52188;SDS011;38162;45.926;13.608;2023-09-19T02:15:10;35.92;;;9.43;;
52188;SDS011;38162;45.926;13.608;2023-09-19T02:17:35;33.13;;;8.98;;
52188;SDS011;38162;45.926;13.608;2023-09-19T02:20:01;29.60;;;8.82;;
52188;SDS011;38162;45.926;13.608;2023-09-19T02:22:28;28.90;;;10.07;;
52188;SDS011;38162;45.926;13.608;2023-09-19T02:24:54;26.50;;;9.15;;
52188;SDS011;38162;45.926;13.608;2023-09-19T02:27:23;39.58;;;9.60;;
52188;SDS011;38162;45.926;13.608;2023-09-19T02:29:49;36.55;;;10.40;;
52188;SDS011;38162;45.926;13.608;2023-09-19T02:32:14;23.30;;;8.63;;
52188;SDS011;38162;45.926;13.608;2023-09-19T02:34:43;31.95;;;9.25;;
52188;SDS011;38162;45.926;13.608;2023-09-19T02:37:09;35.85;;;9.35;;
52188;SDS011;38162;45.926;13.608;2023-09-19T02:39:35;37.15;;;9.80;;
52188;SDS011;38162;45.926;13.608;2023-09-19T02:42:01;36.92;;;8.98;;
52188;SDS011;38162;45.926;13.608;2023-09-19T02:44:29;32.60;;;10.45;;
52188;SDS011;38162;45.926;13.608;2023-09-19T02:46:55;34.28;;;9.48;;
52188;SDS011;38162;45.926;13.608;2023-09-19T02:49:22;34.03;;;8.88;;
52188;SDS011;38162;45.926;13.608;2023-09-19T02:51:48;39.47;;;10.05;;
52188;SDS011;38162;45.926;13.608;2023-09-19T02:54:14;35.38;;;9.93;;
52188;SDS011;38162;45.926;13.608;2023-09-19T02:56:42;25.70;;;8.02;;
52188;SDS011;38162;45.926;13.608;2023-09-19T02:59:08;31.00;;;8.75;;
52188;SDS011;38162;45.926;13.608;2023-09-19T03:01:37;37.08;;;10.15;;
52188;SDS011;38162;45.926;13.608;2023-09-19T03:04:03;32.85;;;9.18;;
52188;SDS011;38162;45.926;13.608;2023-09-19T03:06:31;30.08;;;8.48;;
52188;SDS011;38162;45.926;13.608;2023-09-19T03:08:57;28.38;;;9.07;;
52188;SDS011;38162;45.926;13.608;2023-09-19T03:11:25;30.45;;;8.68;;
52188;SDS011;38162;45.926;13.608;2023-09-19T03:13:53;33.17;;;8.98;;
52188;SDS011;38162;45.926;13.608;2023-09-19T03:16:19;27.73;;;9.50;;
52188;SDS011;38162;45.926;13.608;2023-09-19T03:18:47;34.78;;;10.05;;
52188;SDS011;38162;45.926;13.608;2023-09-19T03:21:14;34.38;;;9.60;;
52188;SDS011;38162;45.926;13.608;2023-09-19T03:23:41;30.50;;;9.02;;
52188;SDS011;38162;45.926;13.608;2023-09-19T03:26:09;35.75;;;8.82;;
52188;SDS011;38162;45.926;13.608;2023-09-19T03:28:35;38.33;;;9.73;;
52188;SDS011;38162;45.926;13.608;2023-09-19T03:31:01;33.40;;;9.32;;
52188;SDS011;38162;45.926;13.608;2023-09-19T03:33:29;31.42;;;8.77;;
52188;SDS011;38162;45.926;13.608;2023-09-19T03:35:59;25.02;;;8.95;;
52188;SDS011;38162;45.926;13.608;2023-09-19T03:38:26;29.02;;;8.43;;
52188;SDS011;38162;45.926;13.608;2023-09-19T03:40:53;31.73;;;9.02;;
52188;SDS011;38162;45.926;13.608;2023-09-19T03:43:18;30.77;;;8.00;;
52188;SDS011;38162;45.926;13.608;2023-09-19T03:45:44;27.40;;;8.65;;
52188;SDS011;38162;45.926;13.608;2023-09-19T03:48:11;25.92;;;8.10;;
52188;SDS011;38162;45.926;13.608;2023-09-19T03:50:38;31.25;;;8.73;;
52188;SDS011;38162;45.926;13.608;2023-09-19T03:53:04;27.17;;;8.10;;
52188;SDS011;38162;45.926;13.608;2023-09-19T03:55:32;27.30;;;7.72;;
52188;SDS011;38162;45.926;13.608;2023-09-19T03:58:00;26.42;;;8.57;;
52188;SDS011;38162;45.926;13.608;2023-09-19T04:00:26;29.48;;;8.55;;
52188;SDS011;38162;45.926;13.608;2023-09-19T04:02:52;30.20;;;8.93;;
52188;SDS011;38162;45.926;13.608;2023-09-19T04:05:18;29.33;;;7.95;;
52188;SDS011;38162;45.926;13.608;2023-09-19T04:07:44;25.63;;;9.13;;
52188;SDS011;38162;45.926;13.608;2023-09-19T04:10:10;22.77;;;7.70;;
52188;SDS011;38162;45.926;13.608;2023-09-19T04:12:40;28.08;;;8.13;;
52188;SDS011;38162;45.926;13.608;2023-09-19T04:15:06;33.95;;;7.85;;
52188;SDS011;38162;45.926;13.608;2023-09-19T04:17:33;25.60;;;7.97;;
52188;SDS011;38162;45.926;13.608;2023-09-19T04:19:59;23.95;;;8.65;;
52188;SDS011;38162;45.926;13.608;2023-09-19T04:22:25;27.13;;;8.02;;
52188;SDS011;38162;45.926;13.608;2023-09-19T04:24:51;27.00;;;7.82;;
52188;SDS011;38162;45.926;13.608;2023-09-19T04:27:16;32.13;;;9.05;;
52188;SDS011;38162;45.926;13.608;2023-09-19T04:29:43;27.67;;;7.55;;
52188;SDS011;38162;45.926;13.608;2023-09-19T04:32:09;30.58;;;8.32;;
52188;SDS011;38162;45.926;13.608;2023-09-19T04:34:35;25.02;;;8.18;;
52188;SDS011;38162;45.926;13.608;2023-09-19T04:37:03;20.45;;;7.82;;
52188;SDS011;38162;45.926;13.608;2023-09-19T04:39:29;21.58;;;7.40;;
52188;SDS011;38162;45.926;13.608;2023-09-19T04:41:54;23.38;;;7.75;;
52188;SDS011;38162;45.926;13.608;2023-09-19T04:44:20;26.27;;;7.57;;
52188;SDS011;38162;45.926;13.608;2023-09-19T04:46:46;33.67;;;8.82;;
52188;SDS011;38162;45.926;13.608;2023-09-19T04:49:12;26.23;;;7.80;;
52188;SDS011;38162;45.926;13.608;2023-09-19T04:51:38;29.13;;;7.75;;
52188;SDS011;38162;45.926;13.608;2023-09-19T04:54:05;23.17;;;8.10;;
52188;SDS011;38162;45.926;13.608;2023-09-19T04:56:31;28.80;;;9.00;;
52188;SDS011;38162;45.926;13.608;2023-09-19T04:58:57;34.10;;;8.75;;
52188;SDS011;38162;45.926;13.608;2023-09-19T05:01:24;24.60;;;8.43;;
52188;SDS011;38162;45.926;13.608;2023-09-19T05:03:50;37.40;;;9.00;;
52188;SDS011;38162;45.926;13.608;2023-09-19T05:06:18;29.92;;;8.35;;
52188;SDS011;38162;45.926;13.608;2023-09-19T05:08:47;29.80;;;9.30;;
52188;SDS011;38162;45.926;13.608;2023-09-19T05:11:20;28.65;;;8.48;;
52188;SDS011;38162;45.926;13.608;2023-09-19T05:13:47;21.00;;;7.68;;
52188;SDS011;38162;45.926;13.608;2023-09-19T05:16:12;27.77;;;8.75;;
52188;SDS011;38162;45.926;13.608;2023-09-19T05:18:38;43.65;;;9.10;;
52188;SDS011;38162;45.926;13.608;2023-09-19T05:21:04;29.50;;;8.73;;
52188;SDS011;38162;45.926;13.608;2023-09-19T05:23:30;28.35;;;8.98;;
52188;SDS011;38162;45.926;13.608;2023-09-19T05:25:56;24.60;;;9.00;;
52188;SDS011;38162;45.926;13.608;2023-09-19T05:28:25;29.95;;;8.00;;
52188;SDS011;38162;45.926;13.608;2023-09-19T05:30:57;35.50;;;8.43;;
52188;SDS011;38162;45.926;13.608;2023-09-19T05:33:27;36.72;;;10.07;;
52188;SDS011;38162;45.926;13.608;2023-09-19T05:35:54;35.22;;;9.43;;
52188;SDS011;38162;45.926;13.608;2023-09-19T05:38:21;25.67;;;8.10;;
52188;SDS011;38162;45.926;13.608;2023-09-19T05:40:47;24.13;;;8.10;;
52188;SDS011;38162;45.926;13.608;2023-09-19T05:43:13;26.33;;;8.25;;
52188;SDS011;38162;45.926;13.608;2023-09-19T05:45:41;29.17;;;9.20;;
52188;SDS011;38162;45.926;13.608;2023-09-19T05:48:11;30.05;;;10.02;;
52188;SDS011;38162;45.926;13.608;2023-09-19T05:50:38;27.67;;;9.37;;
52188;SDS011;38162;45.926;13.608;2023-09-19T05:53:04;31.42;;;9.05;;
52188;SDS011;38162;45.926;13.608;2023-09-19T05:55:31;31.38;;;9.13;;
52188;SDS011;38162;45.926;13.608;2023-09-19T05:57:57;27.63;;;9.30;;
52188;SDS011;38162;45.926;13.608;2023-09-19T06:00:23;29.73;;;9.55;;
52188;SDS011;38162;45.926;13.608;2023-09-19T06:02:51;39.80;;;10.25;;
52188;SDS011;38162;45.926;13.608;2023-09-19T06:05:21;40.47;;;10.57;;
52188;SDS011;38162;45.926;13.608;2023-09-19T06:07:48;36.42;;;9.45;;
52188;SDS011;38162;45.926;13.608;2023-09-19T06:10:15;32.63;;;9.90;;
52188;SDS011;38162;45.926;13.608;2023-09-19T06:12:42;35.45;;;9.25;;
52188;SDS011;38162;45.926;13.608;2023-09-19T06:15:12;39.22;;;9.82;;
52188;SDS011;38162;45.926;13.608;2023-09-19T06:17:45;33.47;;;10.18;;
52188;SDS011;38162;45.926;13.608;2023-09-19T06:20:12;37.28;;;9.77;;
52188;SDS011;38162;45.926;13.608;2023-09-19T06:22:40;27.42;;;9.80;;
52188;SDS011;38162;45.926;13.608;2023-09-19T06:25:07;33.35;;;9.20;;
52188;SDS011;38162;45.926;13.608;2023-09-19T06:27:36;33.30;;;9.70;;
52188;SDS011;38162;45.926;13.608;2023-09-19T06:30:08;37.28;;;10.10;;
52188;SDS011;38162;45.926;13.608;2023-09-19T06:32:35;38.33;;;10.25;;
52188;SDS011;38162;45.926;13.608;2023-09-19T06:35:01;41.33;;;9.85;;
52188;SDS011;38162;45.926;13.608;2023-09-19T06:37:28;45.45;;;9.50;;
52188;SDS011;38162;45.926;13.608;2023-09-19T06:39:54;39.78;;;9.95;;
52188;SDS011;38162;45.926;13.608;2023-09-19T06:42:20;42.47;;;9.32;;
52188;SDS011;38162;45.926;13.608;2023-09-19T06:44:47;40.50;;;10.45;;
52188;SDS011;38162;45.926;13.608;2023-09-19T06:47:13;45.83;;;10.20;;
52188;SDS011;38162;45.926;13.608;2023-09-19T06:49:41;46.05;;;11.00;;
52188;SDS011;38162;45.926;13.608;2023-09-19T06:52:09;45.10;;;10.35;;
52188;SDS011;38162;45.926;13.608;2023-09-19T06:54:35;47.40;;;11.38;;
52188;SDS011;38162;45.926;13.608;2023-09-19T06:57:01;47.95;;;10.45;;
52188;SDS011;38162;45.926;13.608;2023-09-19T06:59:27;41.88;;;9.73;;
52188;SDS011;38162;45.926;13.608;2023-09-19T07:01:53;51.17;;;9.30;;
52188;SDS011;38162;45.926;13.608;2023-09-19T07:04:18;41.03;;;10.18;;
52188;SDS011;38162;45.926;13.608;2023-09-19T07:06:49;46.35;;;9.43;;
52188;SDS011;38162;45.926;13.608;2023-09-19T07:09:15;42.88;;;9.50;;
52188;SDS011;38162;45.926;13.608;2023-09-19T07:11:42;43.83;;;10.32;;
52188;SDS011;38162;45.926;13.608;2023-09-19T07:14:08;44.65;;;10.00;;
52188;SDS011;38162;45.926;13.608;2023-09-19T07:16:36;48.95;;;10.52;;
52188;SDS011;38162;45.926;13.608;2023-09-19T07:19:04;37.78;;;9.57;;
52188;SDS011;38162;45.926;13.608;2023-09-19T07:21:30;39.92;;;9.30;;
52188;SDS011;38162;45.926;13.608;2023-09-19T07:23:59;43.60;;;8.57;;
52188;SDS011;38162;45.926;13.608;2023-09-19T07:26:25;47.97;;;10.38;;
52188;SDS011;38162;45.926;13.608;2023-09-19T07:28:53;39.80;;;8.70;;
52188;SDS011;38162;45.926;13.608;2023-09-19T07:31:19;38.92;;;9.00;;
52188;SDS011;38162;45.926;13.608;2023-09-19T07:33:44;41.20;;;7.95;;
52188;SDS011;38162;45.926;13.608;2023-09-19T07:36:10;42.17;;;9.07;;
52188;SDS011;38162;45.926;13.608;2023-09-19T07:38:41;40.25;;;8.02;;
52188;SDS011;38162;45.926;13.608;2023-09-19T07:41:07;46.42;;;8.05;;
52188;SDS011;38162;45.926;13.608;2023-09-19T07:43:34;38.60;;;8.57;;
52188;SDS011;38162;45.926;13.608;2023-09-19T07:46:04;41.38;;;9.07;;
52188;SDS011;38162;45.926;13.608;2023-09-19T07:48:32;38.97;;;8.63;;
52188;SDS011;38162;45.926;13.608;2023-09-19T07:51:05;28.00;;;7.43;;
52188;SDS011;38162;45.926;13.608;2023-09-19T07:53:32;48.45;;;8.95;;
52188;SDS011;38162;45.926;13.608;2023-09-19T07:56:05;36.22;;;7.45;;
52188;SDS011;38162;45.926;13.608;2023-09-19T07:58:33;40.35;;;8.10;;
52188;SDS011;38162;45.926;13.608;2023-09-19T08:01:08;37.35;;;8.05;;
52188;SDS011;38162;45.926;13.608;2023-09-19T08:03:35;44.70;;;7.82;;
52188;SDS011;38162;45.926;13.608;2023-09-19T08:06:06;42.90;;;7.53;;
52188;SDS011;38162;45.926;13.608;2023-09-19T08:08:33;33.88;;;7.05;;
52188;SDS011;38162;45.926;13.608;2023-09-19T08:11:02;31.75;;;7.72;;
52188;SDS011;38162;45.926;13.608;2023-09-19T08:13:36;46.30;;;8.70;;
52188;SDS011;38162;45.926;13.608;2023-09-19T08:16:03;38.85;;;8.10;;
52188;SDS011;38162;45.926;13.608;2023-09-19T08:18:30;36.50;;;7.57;;
52188;SDS011;38162;45.926;13.608;2023-09-19T08:20:55;39.33;;;8.07;;
52188;SDS011;38162;45.926;13.608;2023-09-19T08:23:23;38.47;;;8.93;;
52188;SDS011;38162;45.926;13.608;2023-09-19T08:25:50;54.83;;;11.18;;
52188;SDS011;38162;45.926;13.608;2023-09-19T08:28:20;40.15;;;9.13;;
52188;SDS011;38162;45.926;13.608;2023-09-19T08:30:49;46.35;;;9.82;;
52188;SDS011;38162;45.926;13.608;2023-09-19T08:33:16;39.03;;;9.10;;
52188;SDS011;38162;45.926;13.608;2023-09-19T08:35:41;39.20;;;8.60;;
52188;SDS011;38162;45.926;13.608;2023-09-19T08:38:07;38.33;;;9.10;;
52188;SDS011;38162;45.926;13.608;2023-09-19T08:40:37;37.60;;;8.82;;
52188;SDS011;38162;45.926;13.608;2023-09-19T08:43:06;36.40;;;9.23;;
52188;SDS011;38162;45.926;13.608;2023-09-19T08:45:33;36.42;;;8.57;;
52188;SDS011;38162;45.926;13.608;2023-09-19T08:50:37;33.00;;;9.07;;
52188;SDS011;38162;45.926;13.608;2023-09-19T08:53:10;32.33;;;9.70;;
52188;SDS011;38162;45.926;13.608;2023-09-19T08:55:40;45.10;;;9.60;;
52188;SDS011;38162;45.926;13.608;2023-09-19T08:58:08;31.60;;;8.10;;
52188;SDS011;38162;45.926;13.608;2023-09-19T09:00:36;25.15;;;8.57;;
52188;SDS011;38162;45.926;13.608;2023-09-19T09:03:02;30.75;;;8.38;;
52188;SDS011;38162;45.926;13.608;2023-09-19T09:05:31;36.05;;;8.35;;
52188;SDS011;38162;45.926;13.608;2023-09-19T09:07:59;32.55;;;9.30;;
52188;SDS011;38162;45.926;13.608;2023-09-19T09:10:27;35.17;;;8.52;;
52188;SDS011;38162;45.926;13.608;2023-09-19T09:12:53;30.98;;;6.40;;
52188;SDS011;38162;45.926;13.608;2023-09-19T09:15:23;25.13;;;6.25;;
52188;SDS011;38162;45.926;13.608;2023-09-19T09:17:49;28.40;;;6.30;;
52188;SDS011;38162;45.926;13.608;2023-09-19T09:20:16;18.88;;;4.25;;
52188;SDS011;38162;45.926;13.608;2023-09-19T09:22:53;20.38;;;4.45;;
52188;SDS011;38162;45.926;13.608;2023-09-19T09:25:19;15.30;;;3.33;;
52188;SDS011;38162;45.926;13.608;2023-09-19T09:27:58;19.60;;;3.67;;
52188;SDS011;38162;45.926;13.608;2023-09-19T09:30:36;15.18;;;3.15;;
52188;SDS011;38162;45.926;13.608;2023-09-19T09:33:09;16.08;;;3.28;;
52188;SDS011;38162;45.926;13.608;2023-09-19T09:35:36;10.50;;;2.63;;
52188;SDS011;38162;45.926;13.608;2023-09-19T09:38:12;14.18;;;2.72;;
52188;SDS011;38162;45.926;13.608;2023-09-19T09:40:48;11.07;;;2.20;;
52188;SDS011;38162;45.926;13.608;2023-09-19T09:43:41;9.55;;;2.50;;
52188;SDS011;38162;45.926;13.608;2023-09-19T09:46:12;11.38;;;2.50;;
52188;SDS011;38162;45.926;13.608;2023-09-19T09:49:00;17.10;;;2.70;;
52188;SDS011;38162;45.926;13.608;2023-09-19T09:52:01;9.77;;;2.47;;
52188;SDS011;38162;45.926;13.608;2023-09-19T09:54:33;9.43;;;2.83;;
52188;SDS011;38162;45.926;13.608;2023-09-19T09:57:05;13.55;;;2.30;;
52188;SDS011;38162;45.926;13.608;2023-09-19T09:59:48;6.60;;;2.53;;
52188;SDS011;38162;45.926;13.608;2023-09-19T10:02:28;12.48;;;2.30;;
52188;SDS011;38162;45.926;13.608;2023-09-19T10:04:57;13.07;;;2.50;;
52188;SDS011;38162;45.926;13.608;2023-09-19T10:07:33;5.55;;;2.20;;
52188;SDS011;38162;45.926;13.608;2023-09-19T10:10:02;6.88;;;2.00;;
52188;SDS011;38162;45.926;13.608;2023-09-19T10:12:45;6.07;;;2.13;;
52188;SDS011;38162;45.926;13.608;2023-09-19T10:15:13;4.30;;;2.10;;
52188;SDS011;38162;45.926;13.608;2023-09-19T10:17:42;8.60;;;2.10;;
52188;SDS011;38162;45.926;13.608;2023-09-19T10:20:17;5.47;;;2.13;;
52188;SDS011;38162;45.926;13.608;2023-09-19T10:23:09;5.35;;;2.17;;
52188;SDS011;38162;45.926;13.608;2023-09-19T10:25:43;13.13;;;2.00;;
52188;SDS011;38162;45.926;13.608;2023-09-19T10:30:45;7.20;;;2.00;;
52188;SDS011;38162;45.926;13.608;2023-09-19T10:33:19;8.68;;;2.00;;
52188;SDS011;38162;45.926;13.608;2023-09-19T10:35:47;5.03;;;1.60;;
52188;SDS011;38162;45.926;13.608;2023-09-19T10:38:15;5.88;;;2.10;;
52188;SDS011;38162;45.926;13.608;2023-09-19T10:40:48;7.28;;;1.65;;
52188;SDS011;38162;45.926;13.608;2023-09-19T10:43:16;7.72;;;1.50;;
52188;SDS011;38162;45.926;13.608;2023-09-19T10:45:43;4.10;;;1.48;;
52188;SDS011;38162;45.926;13.608;2023-09-19T10:48:17;3.83;;;1.43;;
52188;SDS011;38162;45.926;13.608;2023-09-19T10:50:57;3.20;;;1.40;;
52188;SDS011;38162;45.926;13.608;2023-09-19T10:53:31;4.65;;;1.60;;
52188;SDS011;38162;45.926;13.608;2023-09-19T10:56:17;6.07;;;1.40;;
52188;SDS011;38162;45.926;13.608;2023-09-19T11:01:14;2.40;;;1.35;;
52188;SDS011;38162;45.926;13.608;2023-09-19T11:03:41;8.38;;;1.50;;
52188;SDS011;38162;45.926;13.608;2023-09-19T11:06:16;5.80;;;1.55;;
52188;SDS011;38162;45.926;13.608;2023-09-19T11:11:51;6.70;;;1.67;;
52188;SDS011;38162;45.926;13.608;2023-09-19T11:30:43;2.45;;;1.17;;
52188;SDS011;38162;45.926;13.608;2023-09-19T11:43:47;2.42;;;1.20;;
52188;SDS011;38162;45.926;13.608;2023-09-19T11:46:34;4.72;;;1.30;;
52188;SDS011;38162;45.926;13.608;2023-09-19T11:49:16;3.80;;;1.13;;
52188;SDS011;38162;45.926;13.608;2023-09-19T11:51:48;2.35;;;1.02;;
52188;SDS011;38162;45.926;13.608;2023-09-19T11:54:19;2.45;;;0.90;;
52188;SDS011;38162;45.926;13.608;2023-09-19T11:56:49;2.20;;;1.00;;
52188;SDS011;38162;45.926;13.608;2023-09-19T12:01:51;1.40;;;0.80;;
52188;SDS011;38162;45.926;13.608;2023-09-19T12:04:35;4.53;;;1.00;;
52188;SDS011;38162;45.926;13.608;2023-09-19T12:07:08;1.10;;;0.88;;
52188;SDS011;38162;45.926;13.608;2023-09-19T12:12:22;1.80;;;1.00;;
52188;SDS011;38162;45.926;13.608;2023-09-19T12:14:49;3.08;;;1.00;;
52188;SDS011;38162;45.926;13.608;2023-09-19T12:17:15;1.63;;;1.10;;
52188;SDS011;38162;45.926;13.608;2023-09-19T12:19:51;2.50;;;1.10;;
52188;SDS011;38162;45.926;13.608;2023-09-19T12:22:18;4.85;;;1.48;;
52188;SDS011;38162;45.926;13.608;2023-09-19T12:24:45;3.03;;;1.05;;
52188;SDS011;38162;45.926;13.608;2023-09-19T12:27:11;5.03;;;1.10;;
52188;SDS011;38162;45.926;13.608;2023-09-19T12:29:42;3.80;;;1.10;;
52188;SDS011;38162;45.926;13.608;2023-09-19T12:32:13;2.63;;;0.95;;
52188;SDS011;38162;45.926;13.608;2023-09-19T12:34:41;2.72;;;1.10;;
52188;SDS011;38162;45.926;13.608;2023-09-19T12:39:47;2.95;;;1.20;;
52188;SDS011;38162;45.926;13.608;2023-09-19T12:42:20;2.58;;;1.27;;
52188;SDS011;38162;45.926;13.608;2023-09-19T12:44:50;3.42;;;1.10;;
52188;SDS011;38162;45.926;13.608;2023-09-19T12:47:26;4.80;;;1.45;;
52188;SDS011;38162;45.926;13.608;2023-09-19T12:52:39;11.65;;;1.35;;
52188;SDS011;38162;45.926;13.608;2023-09-19T12:55:05;5.72;;;1.20;;
52188;SDS011;38162;45.926;13.608;2023-09-19T12:57:36;5.50;;;1.02;;
52188;SDS011;38162;45.926;13.608;2023-09-19T13:00:02;2.17;;;1.02;;
52188;SDS011;38162;45.926;13.608;2023-09-19T13:02:31;3.08;;;1.05;;
52188;SDS011;38162;45.926;13.608;2023-09-19T13:04:57;4.15;;;1.20;;
52188;SDS011;38162;45.926;13.608;2023-09-19T13:07:44;2.17;;;1.30;;
52188;SDS011;38162;45.926;13.608;2023-09-19T13:10:12;1.63;;;0.90;;
52188;SDS011;38162;45.926;13.608;2023-09-19T13:12:41;2.08;;;1.02;;
52188;SDS011;38162;45.926;13.608;2023-09-19T13:15:12;2.63;;;1.20;;
52188;SDS011;38162;45.926;13.608;2023-09-19T13:17:45;4.25;;;1.70;;
52188;SDS011;38162;45.926;13.608;2023-09-19T13:20:25;4.18;;;1.33;;
52188;SDS011;38162;45.926;13.608;2023-09-19T13:22:57;2.65;;;1.20;;
52188;SDS011;38162;45.926;13.608;2023-09-19T13:25:33;5.72;;;1.00;;
52188;SDS011;38162;45.926;13.608;2023-09-19T13:28:00;2.95;;;1.25;;
52188;SDS011;38162;45.926;13.608;2023-09-19T13:30:29;3.33;;;1.42;;
52188;SDS011;38162;45.926;13.608;2023-09-19T13:33:09;3.92;;;1.23;;
52188;SDS011;38162;45.926;13.608;2023-09-19T13:35:36;6.13;;;1.50;;
52188;SDS011;38162;45.926;13.608;2023-09-19T13:38:05;3.42;;;1.60;;
52188;SDS011;38162;45.926;13.608;2023-09-19T13:40:31;3.58;;;1.10;;
52188;SDS011;38162;45.926;13.608;2023-09-19T13:43:00;2.58;;;0.98;;
52188;SDS011;38162;45.926;13.608;2023-09-19T13:45:26;2.72;;;1.13;;
52188;SDS011;38162;45.926;13.608;2023-09-19T13:47:55;2.63;;;1.13;;
52188;SDS011;38162;45.926;13.608;2023-09-19T13:50:21;2.15;;;1.20;;
52188;SDS011;38162;45.926;13.608;2023-09-19T13:52:50;5.53;;;1.20;;
52188;SDS011;38162;45.926;13.608;2023-09-19T13:55:17;2.95;;;1.05;;
52188;SDS011;38162;45.926;13.608;2023-09-19T13:57:46;4.13;;;1.33;;
52188;SDS011;38162;45.926;13.608;2023-09-19T14:00:15;2.15;;;1.08;;
52188;SDS011;38162;45.926;13.608;2023-09-19T14:02:41;3.40;;;1.20;;
52188;SDS011;38162;45.926;13.608;2023-09-19T14:05:11;1.95;;;1.05;;
52188;SDS011;38162;45.926;13.608;2023-09-19T14:07:40;3.90;;;1.23;;
52188;SDS011;38162;45.926;13.608;2023-09-19T14:10:06;5.30;;;1.20;;
52188;SDS011;38162;45.926;13.608;2023-09-19T14:12:33;3.58;;;1.42;;
52188;SDS011;38162;45.926;13.608;2023-09-19T14:15:00;2.25;;;1.30;;
52188;SDS011;38162;45.926;13.608;2023-09-19T14:17:26;3.40;;;1.30;;
52188;SDS011;38162;45.926;13.608;2023-09-19T14:19:52;6.68;;;1.58;;
52188;SDS011;38162;45.926;13.608;2023-09-19T14:22:17;3.75;;;1.02;;
52188;SDS011;38162;45.926;13.608;2023-09-19T14:24:43;4.28;;;1.15;;
52188;SDS011;38162;45.926;13.608;2023-09-19T14:27:09;2.72;;;1.20;;
52188;SDS011;38162;45.926;13.608;2023-09-19T14:29:35;2.92;;;1.10;;
52188;SDS011;38162;45.926;13.608;2023-09-19T14:32:01;2.45;;;1.25;;
52188;SDS011;38162;45.926;13.608;2023-09-19T14:34:27;3.75;;;1.40;;
52188;SDS011;38162;45.926;13.608;2023-09-19T14:36:53;5.28;;;1.40;;
52188;SDS011;38162;45.926;13.608;2023-09-19T14:39:22;4.68;;;1.20;;
52188;SDS011;38162;45.926;13.608;2023-09-19T14:41:48;7.47;;;1.20;;
52188;SDS011;38162;45.926;13.608;2023-09-19T14:44:14;5.03;;;1.20;;
52188;SDS011;38162;45.926;13.608;2023-09-19T14:46:41;14.65;;;1.60;;
52188;SDS011;38162;45.926;13.608;2023-09-19T14:49:09;4.22;;;1.17;;
52188;SDS011;38162;45.926;13.608;2023-09-19T14:51:35;4.78;;;1.42;;
52188;SDS011;38162;45.926;13.608;2023-09-19T14:54:03;4.97;;;1.38;;
52188;SDS011;38162;45.926;13.608;2023-09-19T14:56:29;7.90;;;1.17;;
52188;SDS011;38162;45.926;13.608;2023-09-19T14:58:56;6.38;;;1.38;;
52188;SDS011;38162;45.926;13.608;2023-09-19T15:01:21;2.53;;;1.23;;
52188;SDS011;38162;45.926;13.608;2023-09-19T15:03:47;5.05;;;1.27;;
52188;SDS011;38162;45.926;13.608;2023-09-19T15:06:14;3.40;;;1.10;;
52188;SDS011;38162;45.926;13.608;2023-09-19T15:08:42;4.88;;;1.45;;
52188;SDS011;38162;45.926;13.608;2023-09-19T15:11:18;2.15;;;0.93;;
52188;SDS011;38162;45.926;13.608;2023-09-19T15:13:45;6.00;;;1.27;;
52188;SDS011;38162;45.926;13.608;2023-09-19T15:16:12;2.13;;;1.17;;
52188;SDS011;38162;45.926;13.608;2023-09-19T15:18:42;3.20;;;1.25;;
52188;SDS011;38162;45.926;13.608;2023-09-19T15:21:12;2.55;;;1.20;;
52188;SDS011;38162;45.926;13.608;2023-09-19T15:23:40;3.10;;;1.50;;
52188;SDS011;38162;45.926;13.608;2023-09-19T15:26:07;8.73;;;1.40;;
52188;SDS011;38162;45.926;13.608;2023-09-19T15:28:34;6.25;;;1.27;;
52188;SDS011;38162;45.926;13.608;2023-09-19T15:31:00;6.72;;;1.40;;
52188;SDS011;38162;45.926;13.608;2023-09-19T15:33:36;4.00;;;1.90;;
52188;SDS011;38162;45.926;13.608;2023-09-19T15:41:23;2.88;;;1.20;;
52188;SDS011;38162;45.926;13.608;2023-09-19T15:43:49;2.08;;;1.35;;
52188;SDS011;38162;45.926;13.608;2023-09-19T15:46:15;2.28;;;1.20;;
52188;SDS011;38162;45.926;13.608;2023-09-19T15:48:41;4.72;;;1.27;;
52188;SDS011;38162;45.926;13.608;2023-09-19T15:51:07;3.67;;;1.10;;